sensor_id;sensor_type;location;lat;lon;timestamp;pressure;altitude;pressure_sealevel;temperature;humidity
55755;BME280;41674;52.290;-1.474;2023-04-26T00:00:12;101283.51;;;8.31;56.68
55755;BME280;41674;52.290;-1.474;2023-04-26T00:02:42;101280.46;;;8.51;55.94
55755;BME280;41674;52.290;-1.474;2023-04-26T00:05:11;101284.68;;;7.84;57.50
55755;BME280;41674;52.290;-1.474;2023-04-26T00:07:41;101284.32;;;7.55;57.44
55755;BME280;41674;52.290;-1.474;2023-04-26T00:10:10;101280.16;;;7.55;55.82
55755;BME280;41674;52.290;-1.474;2023-04-26T00:12:45;101273.02;;;8.05;56.53
55755;BME280;41674;52.290;-1.474;2023-04-26T00:15:10;101273.04;;;7.62;56.32
55755;BME280;41674;52.290;-1.474;2023-04-26T00:17:39;101273.76;;;7.73;56.75
55755;BME280;41674;52.290;-1.474;2023-04-26T00:20:09;101274.92;;;7.45;57.16
55755;BME280;41674;52.290;-1.474;2023-04-26T00:22:38;101270.74;;;7.53;57.04
55755;BME280;41674;52.290;-1.474;2023-04-26T00:25:08;101271.28;;;7.17;58.81
55755;BME280;41674;52.290;-1.474;2023-04-26T00:27:37;101274.02;;;6.97;59.28
55755;BME280;41674;52.290;-1.474;2023-04-26T00:30:08;101273.56;;;7.09;60.09
55755;BME280;41674;52.290;-1.474;2023-04-26T00:32:37;101271.02;;;7.16;59.79
55755;BME280;41674;52.290;-1.474;2023-04-26T00:35:07;101268.73;;;6.82;60.65
55755;BME280;41674;52.290;-1.474;2023-04-26T00:37:35;101267.01;;;7.59;58.59
55755;BME280;41674;52.290;-1.474;2023-04-26T00:40:06;101263.31;;;7.08;59.87
55755;BME280;41674;52.290;-1.474;2023-04-26T00:42:36;101262.17;;;7.21;59.89
55755;BME280;41674;52.290;-1.474;2023-04-26T00:45:06;101262.33;;;6.69;61.77
55755;BME280;41674;52.290;-1.474;2023-04-26T00:47:34;101260.99;;;6.88;59.72
55755;BME280;41674;52.290;-1.474;2023-04-26T00:50:09;101259.82;;;6.95;59.44
55755;BME280;41674;52.290;-1.474;2023-04-26T00:52:33;101258.85;;;7.08;58.64
55755;BME280;41674;52.290;-1.474;2023-04-26T00:55:03;101258.14;;;7.19;58.05
55755;BME280;41674;52.290;-1.474;2023-04-26T00:57:32;101256.13;;;7.21;58.08
55755;BME280;41674;52.290;-1.474;2023-04-26T01:00:08;101253.29;;;7.62;58.19
55755;BME280;41674;52.290;-1.474;2023-04-26T01:02:31;101246.70;;;7.35;59.39
55755;BME280;41674;52.290;-1.474;2023-04-26T01:05:01;101243.56;;;7.29;60.00
55755;BME280;41674;52.290;-1.474;2023-04-26T01:07:30;101248.34;;;7.72;58.31
55755;BME280;41674;52.290;-1.474;2023-04-26T01:09:59;101252.47;;;7.18;58.88
55755;BME280;41674;52.290;-1.474;2023-04-26T01:12:28;101254.64;;;6.94;60.45
55755;BME280;41674;52.290;-1.474;2023-04-26T01:14:59;101255.45;;;7.26;59.64
55755;BME280;41674;52.290;-1.474;2023-04-26T01:17:27;101256.47;;;7.85;58.39
55755;BME280;41674;52.290;-1.474;2023-04-26T01:19:57;101251.35;;;7.43;56.75
55755;BME280;41674;52.290;-1.474;2023-04-26T01:22:26;101251.22;;;7.74;57.28
55755;BME280;41674;52.290;-1.474;2023-04-26T01:24:57;101249.92;;;7.49;57.90
55755;BME280;41674;52.290;-1.474;2023-04-26T01:27:25;101252.48;;;7.52;59.09
55755;BME280;41674;52.290;-1.474;2023-04-26T01:29:55;101252.04;;;7.42;59.45
55755;BME280;41674;52.290;-1.474;2023-04-26T01:32:24;101253.62;;;7.20;60.05
55755;BME280;41674;52.290;-1.474;2023-04-26T01:34:54;101255.29;;;7.46;59.47
55755;BME280;41674;52.290;-1.474;2023-04-26T01:37:23;101253.12;;;7.16;60.47
55755;BME280;41674;52.290;-1.474;2023-04-26T01:39:53;101250.10;;;7.62;59.36
55755;BME280;41674;52.290;-1.474;2023-04-26T01:42:22;101246.48;;;7.66;59.21
55755;BME280;41674;52.290;-1.474;2023-04-26T01:44:52;101246.94;;;7.57;59.78
55755;BME280;41674;52.290;-1.474;2023-04-26T01:47:22;101249.01;;;7.54;60.08
55755;BME280;41674;52.290;-1.474;2023-04-26T01:49:51;101249.85;;;7.50;60.24
55755;BME280;41674;52.290;-1.474;2023-04-26T01:52:21;101252.16;;;7.46;60.51
55755;BME280;41674;52.290;-1.474;2023-04-26T01:54:50;101249.34;;;7.28;60.71
55755;BME280;41674;52.290;-1.474;2023-04-26T01:57:19;101245.76;;;6.71;61.66
55755;BME280;41674;52.290;-1.474;2023-04-26T01:59:49;101245.63;;;7.37;60.18
55755;BME280;41674;52.290;-1.474;2023-04-26T02:02:18;101240.23;;;7.27;60.79
55755;BME280;41674;52.290;-1.474;2023-04-26T02:04:47;101237.74;;;6.75;60.94
55755;BME280;41674;52.290;-1.474;2023-04-26T02:07:16;101236.98;;;7.06;60.52
55755;BME280;41674;52.290;-1.474;2023-04-26T02:09:45;101240.67;;;7.21;59.40
55755;BME280;41674;52.290;-1.474;2023-04-26T02:12:15;101240.29;;;6.67;59.91
55755;BME280;41674;52.290;-1.474;2023-04-26T02:14:45;101237.43;;;7.03;61.02
55755;BME280;41674;52.290;-1.474;2023-04-26T02:17:14;101235.75;;;6.91;60.57
55755;BME280;41674;52.290;-1.474;2023-04-26T02:19:44;101235.01;;;6.87;61.25
55755;BME280;41674;52.290;-1.474;2023-04-26T02:22:13;101236.29;;;6.89;61.58
55755;BME280;41674;52.290;-1.474;2023-04-26T02:24:43;101235.57;;;6.75;61.08
55755;BME280;41674;52.290;-1.474;2023-04-26T02:27:13;101233.03;;;6.93;60.66
55755;BME280;41674;52.290;-1.474;2023-04-26T02:29:43;101234.20;;;6.67;61.19
55755;BME280;41674;52.290;-1.474;2023-04-26T02:32:12;101233.15;;;6.88;61.22
55755;BME280;41674;52.290;-1.474;2023-04-26T02:34:43;101232.62;;;6.94;61.33
55755;BME280;41674;52.290;-1.474;2023-04-26T02:37:11;101229.98;;;6.59;62.28
55755;BME280;41674;52.290;-1.474;2023-04-26T02:39:41;101231.32;;;7.08;61.69
55755;BME280;41674;52.290;-1.474;2023-04-26T02:42:10;101234.00;;;7.12;62.46
55755;BME280;41674;52.290;-1.474;2023-04-26T02:44:39;101239.31;;;7.33;61.95
55755;BME280;41674;52.290;-1.474;2023-04-26T02:47:10;101241.80;;;7.14;61.60
55755;BME280;41674;52.290;-1.474;2023-04-26T02:49:39;101242.10;;;7.32;61.40
55755;BME280;41674;52.290;-1.474;2023-04-26T02:52:08;101240.83;;;7.28;60.26
55755;BME280;41674;52.290;-1.474;2023-04-26T02:54:38;101239.07;;;7.74;59.65
55755;BME280;41674;52.290;-1.474;2023-04-26T02:57:07;101232.42;;;7.50;59.19
55755;BME280;41674;52.290;-1.474;2023-04-26T02:59:37;101235.99;;;7.14;61.07
55755;BME280;41674;52.290;-1.474;2023-04-26T03:02:06;101240.03;;;7.01;60.25
55755;BME280;41674;52.290;-1.474;2023-04-26T03:04:36;101241.30;;;7.46;59.94
55755;BME280;41674;52.290;-1.474;2023-04-26T03:07:05;101240.98;;;7.42;60.54
55755;BME280;41674;52.290;-1.474;2023-04-26T03:09:35;101239.94;;;7.22;61.91
55755;BME280;41674;52.290;-1.474;2023-04-26T03:12:05;101237.62;;;6.86;62.98
55755;BME280;41674;52.290;-1.474;2023-04-26T03:14:34;101238.29;;;7.25;62.55
55755;BME280;41674;52.290;-1.474;2023-04-26T03:17:03;101234.10;;;7.30;62.49
55755;BME280;41674;52.290;-1.474;2023-04-26T03:19:32;101233.82;;;7.59;62.16
55755;BME280;41674;52.290;-1.474;2023-04-26T03:22:02;101232.67;;;7.51;62.12
55755;BME280;41674;52.290;-1.474;2023-04-26T03:24:31;101228.48;;;7.83;61.20
55755;BME280;41674;52.290;-1.474;2023-04-26T03:27:00;101227.91;;;7.61;60.42
55755;BME280;41674;52.290;-1.474;2023-04-26T03:29:30;101226.75;;;7.66;61.55
55755;BME280;41674;52.290;-1.474;2023-04-26T03:32:00;101223.94;;;7.51;60.87
55755;BME280;41674;52.290;-1.474;2023-04-26T03:34:29;101227.32;;;7.25;62.86
55755;BME280;41674;52.290;-1.474;2023-04-26T03:36:58;101222.98;;;5.79;68.78
55755;BME280;41674;52.290;-1.474;2023-04-26T03:39:28;101221.25;;;7.41;62.97
55755;BME280;41674;52.290;-1.474;2023-04-26T03:41:58;101219.15;;;7.38;61.63
55755;BME280;41674;52.290;-1.474;2023-04-26T03:44:27;101212.58;;;7.80;59.98
55755;BME280;41674;52.290;-1.474;2023-04-26T03:46:57;101212.19;;;7.50;61.85
55755;BME280;41674;52.290;-1.474;2023-04-26T03:49:26;101207.00;;;6.34;64.38
55755;BME280;41674;52.290;-1.474;2023-04-26T03:51:56;101210.13;;;7.18;61.97
55755;BME280;41674;52.290;-1.474;2023-04-26T03:54:25;101214.95;;;7.43;61.88
55755;BME280;41674;52.290;-1.474;2023-04-26T03:56:55;101215.96;;;6.40;64.69
55755;BME280;41674;52.290;-1.474;2023-04-26T03:59:24;101216.33;;;5.88;67.80
55755;BME280;41674;52.290;-1.474;2023-04-26T04:01:53;101215.81;;;7.40;61.89
55755;BME280;41674;52.290;-1.474;2023-04-26T04:04:23;101210.73;;;7.40;61.42
55755;BME280;41674;52.290;-1.474;2023-04-26T04:06:52;101210.71;;;6.66;64.22
55755;BME280;41674;52.290;-1.474;2023-04-26T04:09:22;101205.94;;;7.32;62.15
55755;BME280;41674;52.290;-1.474;2023-04-26T04:11:52;101203.56;;;6.45;64.25
55755;BME280;41674;52.290;-1.474;2023-04-26T04:14:21;101203.41;;;6.78;63.90
55755;BME280;41674;52.290;-1.474;2023-04-26T04:16:50;101201.13;;;6.99;63.83
55755;BME280;41674;52.290;-1.474;2023-04-26T04:19:20;101199.03;;;7.09;61.46
55755;BME280;41674;52.290;-1.474;2023-04-26T04:21:49;101199.50;;;6.97;62.06
55755;BME280;41674;52.290;-1.474;2023-04-26T04:24:18;101199.78;;;6.53;64.28
55755;BME280;41674;52.290;-1.474;2023-04-26T04:26:48;101202.90;;;7.44;61.89
55755;BME280;41674;52.290;-1.474;2023-04-26T04:29:18;101196.76;;;6.42;63.82
55755;BME280;41674;52.290;-1.474;2023-04-26T04:31:47;101194.11;;;6.30;63.53
55755;BME280;41674;52.290;-1.474;2023-04-26T04:34:17;101194.08;;;7.08;62.42
55755;BME280;41674;52.290;-1.474;2023-04-26T04:36:46;101193.55;;;7.57;61.73
55755;BME280;41674;52.290;-1.474;2023-04-26T04:39:15;101196.75;;;7.21;61.86
55755;BME280;41674;52.290;-1.474;2023-04-26T04:41:45;101195.15;;;7.33;61.77
55755;BME280;41674;52.290;-1.474;2023-04-26T04:44:15;101195.54;;;6.89;62.03
55755;BME280;41674;52.290;-1.474;2023-04-26T04:46:49;101191.70;;;7.45;61.23
55755;BME280;41674;52.290;-1.474;2023-04-26T04:49:13;101195.70;;;7.67;60.16
55755;BME280;41674;52.290;-1.474;2023-04-26T04:51:43;101196.22;;;8.01;60.24
55755;BME280;41674;52.290;-1.474;2023-04-26T04:54:14;101196.17;;;7.73;61.31
55755;BME280;41674;52.290;-1.474;2023-04-26T04:56:42;101198.46;;;7.60;61.43
55755;BME280;41674;52.290;-1.474;2023-04-26T04:59:11;101205.37;;;7.91;60.92
55755;BME280;41674;52.290;-1.474;2023-04-26T05:01:41;101207.41;;;7.62;62.05
55755;BME280;41674;52.290;-1.474;2023-04-26T05:04:10;101212.12;;;8.09;60.86
55755;BME280;41674;52.290;-1.474;2023-04-26T05:06:40;101213.85;;;7.20;63.62
55755;BME280;41674;52.290;-1.474;2023-04-26T05:09:10;101215.28;;;7.50;61.45
55755;BME280;41674;52.290;-1.474;2023-04-26T05:11:39;101216.26;;;7.88;61.56
55755;BME280;41674;52.290;-1.474;2023-04-26T05:14:08;101212.00;;;7.39;62.70
55755;BME280;41674;52.290;-1.474;2023-04-26T05:16:37;101213.43;;;7.30;63.62
55755;BME280;41674;52.290;-1.474;2023-04-26T05:19:07;101213.90;;;8.17;61.53
55755;BME280;41674;52.290;-1.474;2023-04-26T05:21:36;101218.32;;;8.20;61.54
55755;BME280;41674;52.290;-1.474;2023-04-26T05:24:06;101219.89;;;8.26;61.63
55755;BME280;41674;52.290;-1.474;2023-04-26T05:26:36;101220.00;;;8.44;61.55
55755;BME280;41674;52.290;-1.474;2023-04-26T05:29:05;101219.15;;;8.00;62.01
55755;BME280;41674;52.290;-1.474;2023-04-26T05:31:35;101225.15;;;7.89;61.68
55755;BME280;41674;52.290;-1.474;2023-04-26T05:34:04;101220.43;;;8.04;60.95
55755;BME280;41674;52.290;-1.474;2023-04-26T05:36:34;101218.34;;;7.89;62.56
55755;BME280;41674;52.290;-1.474;2023-04-26T05:39:04;101218.84;;;7.81;62.47
55755;BME280;41674;52.290;-1.474;2023-04-26T05:41:33;101221.97;;;8.03;62.81
55755;BME280;41674;52.290;-1.474;2023-04-26T05:44:03;101220.78;;;7.85;63.51
55755;BME280;41674;52.290;-1.474;2023-04-26T05:46:32;101220.20;;;7.85;63.82
55755;BME280;41674;52.290;-1.474;2023-04-26T05:49:01;101219.15;;;7.44;65.27
55755;BME280;41674;52.290;-1.474;2023-04-26T05:51:31;101216.69;;;7.70;64.08
55755;BME280;41674;52.290;-1.474;2023-04-26T05:54:00;101221.44;;;7.87;64.54
55755;BME280;41674;52.290;-1.474;2023-04-26T05:56:29;101225.84;;;7.58;65.52
55755;BME280;41674;52.290;-1.474;2023-04-26T05:59:00;101224.79;;;7.70;64.68
55755;BME280;41674;52.290;-1.474;2023-04-26T06:01:29;101226.58;;;7.43;66.11
55755;BME280;41674;52.290;-1.474;2023-04-26T06:03:58;101230.17;;;7.02;66.78
55755;BME280;41674;52.290;-1.474;2023-04-26T06:06:27;101226.52;;;7.64;65.75
55755;BME280;41674;52.290;-1.474;2023-04-26T06:08:57;101224.77;;;7.29;66.95
55755;BME280;41674;52.290;-1.474;2023-04-26T06:11:26;101223.35;;;7.43;66.52
55755;BME280;41674;52.290;-1.474;2023-04-26T06:13:56;101219.96;;;7.68;66.98
55755;BME280;41674;52.290;-1.474;2023-04-26T06:16:25;101218.47;;;8.12;66.03
55755;BME280;41674;52.290;-1.474;2023-04-26T06:18:54;101224.69;;;7.95;66.51
55755;BME280;41674;52.290;-1.474;2023-04-26T06:21:24;101227.13;;;7.56;66.63
55755;BME280;41674;52.290;-1.474;2023-04-26T06:23:53;101230.66;;;7.59;65.03
55755;BME280;41674;52.290;-1.474;2023-04-26T06:26:23;101231.87;;;7.71;66.63
55755;BME280;41674;52.290;-1.474;2023-04-26T06:28:52;101227.77;;;8.31;65.72
55755;BME280;41674;52.290;-1.474;2023-04-26T06:31:22;101227.18;;;8.35;64.85
55755;BME280;41674;52.290;-1.474;2023-04-26T06:33:51;101230.31;;;8.48;64.98
55755;BME280;41674;52.290;-1.474;2023-04-26T06:36:21;101237.26;;;7.81;68.41
55755;BME280;41674;52.290;-1.474;2023-04-26T06:38:50;101233.97;;;7.89;65.83
55755;BME280;41674;52.290;-1.474;2023-04-26T06:41:20;101233.27;;;8.50;63.80
55755;BME280;41674;52.290;-1.474;2023-04-26T06:43:49;101234.86;;;8.72;61.87
55755;BME280;41674;52.290;-1.474;2023-04-26T06:46:19;101233.69;;;8.14;61.64
55755;BME280;41674;52.290;-1.474;2023-04-26T06:48:49;101229.33;;;8.23;62.39
55755;BME280;41674;52.290;-1.474;2023-04-26T06:51:18;101229.68;;;8.68;61.48
55755;BME280;41674;52.290;-1.474;2023-04-26T06:53:48;101232.86;;;7.66;63.55
55755;BME280;41674;52.290;-1.474;2023-04-26T06:56:17;101230.28;;;8.32;61.11
55755;BME280;41674;52.290;-1.474;2023-04-26T06:58:58;101231.56;;;8.52;60.47
55755;BME280;41674;52.290;-1.474;2023-04-26T07:01:17;101228.95;;;8.06;64.15
55755;BME280;41674;52.290;-1.474;2023-04-26T07:03:46;101229.16;;;8.18;64.20
55755;BME280;41674;52.290;-1.474;2023-04-26T07:06:15;101232.21;;;7.58;65.73
55755;BME280;41674;52.290;-1.474;2023-04-26T07:08:45;101227.21;;;8.65;62.56
55755;BME280;41674;52.290;-1.474;2023-04-26T07:11:14;101228.49;;;9.61;60.07
55755;BME280;41674;52.290;-1.474;2023-04-26T07:13:44;101230.29;;;9.94;60.20
55755;BME280;41674;52.290;-1.474;2023-04-26T07:16:14;101226.05;;;9.03;61.14
55755;BME280;41674;52.290;-1.474;2023-04-26T07:18:43;101222.15;;;7.29;65.01
55755;BME280;41674;52.290;-1.474;2023-04-26T07:21:13;101224.05;;;8.97;60.23
55755;BME280;41674;52.290;-1.474;2023-04-26T07:23:42;101226.05;;;8.84;60.78
55755;BME280;41674;52.290;-1.474;2023-04-26T07:26:12;101230.19;;;9.15;60.15
55755;BME280;41674;52.290;-1.474;2023-04-26T07:28:41;101225.63;;;9.12;60.33
55755;BME280;41674;52.290;-1.474;2023-04-26T07:31:16;101217.82;;;8.11;62.36
55755;BME280;41674;52.290;-1.474;2023-04-26T07:33:41;101219.62;;;8.56;62.55
55755;BME280;41674;52.290;-1.474;2023-04-26T07:36:11;101218.07;;;8.57;62.09
55755;BME280;41674;52.290;-1.474;2023-04-26T07:38:40;101221.18;;;6.35;67.66
55755;BME280;41674;52.290;-1.474;2023-04-26T07:41:10;101217.98;;;8.81;61.96
55755;BME280;41674;52.290;-1.474;2023-04-26T07:43:39;101215.24;;;8.27;64.65
55755;BME280;41674;52.290;-1.474;2023-04-26T07:46:09;101217.08;;;8.76;62.59
55755;BME280;41674;52.290;-1.474;2023-04-26T07:48:38;101217.11;;;8.39;65.05
55755;BME280;41674;52.290;-1.474;2023-04-26T07:51:09;101221.80;;;8.45;63.11
55755;BME280;41674;52.290;-1.474;2023-04-26T07:53:38;101223.91;;;8.77;62.16
55755;BME280;41674;52.290;-1.474;2023-04-26T07:56:08;101223.75;;;8.85;59.76
55755;BME280;41674;52.290;-1.474;2023-04-26T07:58:37;101221.54;;;7.97;59.68
55755;BME280;41674;52.290;-1.474;2023-04-26T08:01:06;101225.15;;;7.30;62.87
55755;BME280;41674;52.290;-1.474;2023-04-26T08:03:36;101220.54;;;8.17;62.12
55755;BME280;41674;52.290;-1.474;2023-04-26T08:06:06;101221.26;;;8.19;61.44
55755;BME280;41674;52.290;-1.474;2023-04-26T08:08:36;101227.84;;;7.78;59.74
55755;BME280;41674;52.290;-1.474;2023-04-26T08:11:10;101224.82;;;8.84;58.19
55755;BME280;41674;52.290;-1.474;2023-04-26T08:13:34;101227.69;;;9.14;58.90
55755;BME280;41674;52.290;-1.474;2023-04-26T08:16:04;101226.76;;;9.11;55.86
55755;BME280;41674;52.290;-1.474;2023-04-26T08:18:33;101225.86;;;8.96;55.08
55755;BME280;41674;52.290;-1.474;2023-04-26T08:21:03;101225.18;;;9.23;55.65
55755;BME280;41674;52.290;-1.474;2023-04-26T08:23:33;101217.79;;;9.65;54.51
55755;BME280;41674;52.290;-1.474;2023-04-26T08:26:02;101209.44;;;9.82;53.64
55755;BME280;41674;52.290;-1.474;2023-04-26T08:28:32;101211.34;;;9.51;54.02
55755;BME280;41674;52.290;-1.474;2023-04-26T08:31:01;101212.92;;;9.04;53.28
55755;BME280;41674;52.290;-1.474;2023-04-26T08:33:31;101208.01;;;9.46;50.71
55755;BME280;41674;52.290;-1.474;2023-04-26T08:36:01;101206.78;;;9.18;53.30
55755;BME280;41674;52.290;-1.474;2023-04-26T08:38:30;101211.46;;;9.10;52.40
55755;BME280;41674;52.290;-1.474;2023-04-26T08:41:01;101214.46;;;8.61;51.32
55755;BME280;41674;52.290;-1.474;2023-04-26T08:43:29;101212.55;;;9.34;51.82
55755;BME280;41674;52.290;-1.474;2023-04-26T08:46:00;101209.59;;;8.55;52.11
55755;BME280;41674;52.290;-1.474;2023-04-26T08:48:29;101210.06;;;9.01;50.29
55755;BME280;41674;52.290;-1.474;2023-04-26T08:50:59;101215.57;;;9.19;50.84
55755;BME280;41674;52.290;-1.474;2023-04-26T08:53:28;101209.06;;;10.28;51.03
55755;BME280;41674;52.290;-1.474;2023-04-26T08:55:58;101210.52;;;10.58;47.66
55755;BME280;41674;52.290;-1.474;2023-04-26T08:58:27;101215.48;;;9.48;49.95
55755;BME280;41674;52.290;-1.474;2023-04-26T09:00:57;101219.95;;;9.38;51.11
55755;BME280;41674;52.290;-1.474;2023-04-26T09:03:27;101215.52;;;9.91;52.12
55755;BME280;41674;52.290;-1.474;2023-04-26T09:05:56;101212.70;;;10.49;51.26
55755;BME280;41674;52.290;-1.474;2023-04-26T09:08:26;101213.98;;;10.70;48.58
55755;BME280;41674;52.290;-1.474;2023-04-26T09:10:55;101216.62;;;10.41;49.99
55755;BME280;41674;52.290;-1.474;2023-04-26T09:13:27;101227.06;;;9.02;48.27
55755;BME280;41674;52.290;-1.474;2023-04-26T09:15:54;101225.90;;;9.97;47.15
55755;BME280;41674;52.290;-1.474;2023-04-26T09:18:24;101228.07;;;9.90;47.36
55755;BME280;41674;52.290;-1.474;2023-04-26T09:21:01;101226.09;;;10.02;47.33
55755;BME280;41674;52.290;-1.474;2023-04-26T09:23:23;101226.91;;;9.85;51.80
55755;BME280;41674;52.290;-1.474;2023-04-26T09:25:53;101222.79;;;10.44;45.80
55755;BME280;41674;52.290;-1.474;2023-04-26T09:28:23;101221.05;;;10.24;47.16
55755;BME280;41674;52.290;-1.474;2023-04-26T09:30:52;101220.14;;;10.58;46.90
55755;BME280;41674;52.290;-1.474;2023-04-26T09:33:22;101216.40;;;11.79;45.84
55755;BME280;41674;52.290;-1.474;2023-04-26T09:35:51;101218.82;;;11.12;45.84
55755;BME280;41674;52.290;-1.474;2023-04-26T09:38:21;101219.99;;;10.56;46.33
55755;BME280;41674;52.290;-1.474;2023-04-26T09:40:51;101220.10;;;11.15;46.17
55755;BME280;41674;52.290;-1.474;2023-04-26T09:43:21;101216.36;;;11.51;44.38
55755;BME280;41674;52.290;-1.474;2023-04-26T09:45:51;101215.88;;;11.06;46.21
55755;BME280;41674;52.290;-1.474;2023-04-26T09:48:21;101210.90;;;11.65;44.24
55755;BME280;41674;52.290;-1.474;2023-04-26T09:50:50;101214.16;;;9.55;48.08
55755;BME280;41674;52.290;-1.474;2023-04-26T09:53:27;101209.11;;;10.13;45.95
55755;BME280;41674;52.290;-1.474;2023-04-26T09:55:48;101204.61;;;11.08;44.50
55755;BME280;41674;52.290;-1.474;2023-04-26T09:58:17;101200.23;;;11.47;43.87
55755;BME280;41674;52.290;-1.474;2023-04-26T10:00:50;101195.93;;;11.10;44.29
55755;BME280;41674;52.290;-1.474;2023-04-26T10:03:17;101188.17;;;11.87;44.64
55755;BME280;41674;52.290;-1.474;2023-04-26T10:05:46;101189.72;;;10.51;47.66
55755;BME280;41674;52.290;-1.474;2023-04-26T10:08:16;101189.23;;;10.82;46.46
55755;BME280;41674;52.290;-1.474;2023-04-26T10:10:47;101188.92;;;10.52;48.88
55755;BME280;41674;52.290;-1.474;2023-04-26T10:13:15;101187.72;;;11.08;46.90
55755;BME280;41674;52.290;-1.474;2023-04-26T10:15:45;101182.86;;;11.29;46.45
55755;BME280;41674;52.290;-1.474;2023-04-26T10:18:14;101182.27;;;10.01;45.89
55755;BME280;41674;52.290;-1.474;2023-04-26T10:20:47;101185.31;;;10.57;45.64
55755;BME280;41674;52.290;-1.474;2023-04-26T10:23:17;101178.71;;;10.94;44.63
55755;BME280;41674;52.290;-1.474;2023-04-26T10:25:43;101175.26;;;10.71;44.98
55755;BME280;41674;52.290;-1.474;2023-04-26T10:28:12;101169.10;;;11.46;44.17
55755;BME280;41674;52.290;-1.474;2023-04-26T10:30:53;101165.67;;;11.07;44.61
55755;BME280;41674;52.290;-1.474;2023-04-26T10:33:12;101166.95;;;11.18;44.11
55755;BME280;41674;52.290;-1.474;2023-04-26T10:38:11;101159.28;;;12.07;41.16
55755;BME280;41674;52.290;-1.474;2023-04-26T10:40:40;101157.47;;;11.83;41.12
55755;BME280;41674;52.290;-1.474;2023-04-26T10:43:26;101162.42;;;11.18;40.42
55755;BME280;41674;52.290;-1.474;2023-04-26T10:45:41;101154.83;;;12.07;42.11
55755;BME280;41674;52.290;-1.474;2023-04-26T10:48:14;101148.32;;;12.88;40.18
55755;BME280;41674;52.290;-1.474;2023-04-26T10:53:08;101143.33;;;12.56;42.56
55755;BME280;41674;52.290;-1.474;2023-04-26T10:55:39;101139.91;;;12.13;40.03
55755;BME280;41674;52.290;-1.474;2023-04-26T11:00:37;101135.97;;;12.05;40.76
55755;BME280;41674;52.290;-1.474;2023-04-26T11:03:09;101133.79;;;12.32;39.34
55755;BME280;41674;52.290;-1.474;2023-04-26T11:05:46;101132.27;;;11.79;42.36
55755;BME280;41674;52.290;-1.474;2023-04-26T11:08:07;101131.86;;;11.53;41.42
55755;BME280;41674;52.290;-1.474;2023-04-26T11:10:37;101131.56;;;11.50;38.56
55755;BME280;41674;52.290;-1.474;2023-04-26T11:13:05;101128.97;;;10.78;39.30
55755;BME280;41674;52.290;-1.474;2023-04-26T11:15:35;101117.99;;;11.66;39.87
55755;BME280;41674;52.290;-1.474;2023-04-26T11:18:05;101125.16;;;11.52;40.48
55755;BME280;41674;52.290;-1.474;2023-04-26T11:20:34;101126.17;;;12.17;38.99
55755;BME280;41674;52.290;-1.474;2023-04-26T11:23:07;101129.00;;;12.30;40.01
55755;BME280;41674;52.290;-1.474;2023-04-26T11:25:33;101126.80;;;12.22;41.56
55755;BME280;41674;52.290;-1.474;2023-04-26T11:28:05;101125.63;;;11.98;41.56
55755;BME280;41674;52.290;-1.474;2023-04-26T11:30:33;101123.19;;;12.76;39.93
55755;BME280;41674;52.290;-1.474;2023-04-26T11:33:03;101127.89;;;13.18;41.05
55755;BME280;41674;52.290;-1.474;2023-04-26T11:35:33;101123.14;;;13.61;39.46
55755;BME280;41674;52.290;-1.474;2023-04-26T11:38:03;101128.01;;;12.77;40.07
55755;BME280;41674;52.290;-1.474;2023-04-26T11:40:32;101125.78;;;12.41;41.59
55755;BME280;41674;52.290;-1.474;2023-04-26T11:43:02;101126.68;;;12.63;39.15
55755;BME280;41674;52.290;-1.474;2023-04-26T11:45:31;101123.80;;;13.29;37.61
55755;BME280;41674;52.290;-1.474;2023-04-26T11:48:01;101120.45;;;13.75;38.14
55755;BME280;41674;52.290;-1.474;2023-04-26T11:50:30;101126.81;;;13.13;41.01
55755;BME280;41674;52.290;-1.474;2023-04-26T11:53:00;101130.66;;;13.09;39.23
55755;BME280;41674;52.290;-1.474;2023-04-26T11:55:29;101125.25;;;13.33;38.08
55755;BME280;41674;52.290;-1.474;2023-04-26T11:57:58;101123.01;;;13.42;39.22
55755;BME280;41674;52.290;-1.474;2023-04-26T12:00:27;101122.53;;;13.62;40.59
55755;BME280;41674;52.290;-1.474;2023-04-26T12:03:03;101126.24;;;13.51;39.85
55755;BME280;41674;52.290;-1.474;2023-04-26T12:05:28;101116.54;;;13.87;38.64
55755;BME280;41674;52.290;-1.474;2023-04-26T12:07:57;101119.58;;;13.73;41.85
55755;BME280;41674;52.290;-1.474;2023-04-26T12:10:26;101116.78;;;14.40;37.81
55755;BME280;41674;52.290;-1.474;2023-04-26T12:12:55;101113.93;;;14.29;36.32
55755;BME280;41674;52.290;-1.474;2023-04-26T12:15:28;101108.58;;;13.87;39.08
55755;BME280;41674;52.290;-1.474;2023-04-26T12:17:55;101113.95;;;14.43;43.19
55755;BME280;41674;52.290;-1.474;2023-04-26T12:20:28;101107.59;;;15.04;39.51
55755;BME280;41674;52.290;-1.474;2023-04-26T12:22:59;101112.68;;;15.45;38.05
55755;BME280;41674;52.290;-1.474;2023-04-26T12:25:22;101108.84;;;15.63;36.75
55755;BME280;41674;52.290;-1.474;2023-04-26T12:27:52;101109.65;;;15.47;36.86
55755;BME280;41674;52.290;-1.474;2023-04-26T12:30:21;101114.45;;;15.21;38.57
55755;BME280;41674;52.290;-1.474;2023-04-26T12:32:51;101111.02;;;14.48;35.62
55755;BME280;41674;52.290;-1.474;2023-04-26T12:35:21;101107.20;;;14.70;39.21
55755;BME280;41674;52.290;-1.474;2023-04-26T12:37:50;101118.05;;;13.42;38.76
55755;BME280;41674;52.290;-1.474;2023-04-26T12:40:19;101107.37;;;14.93;38.54
55755;BME280;41674;52.290;-1.474;2023-04-26T12:42:49;101112.82;;;15.49;37.94
55755;BME280;41674;52.290;-1.474;2023-04-26T12:45:19;101117.11;;;15.40;36.96
55755;BME280;41674;52.290;-1.474;2023-04-26T12:47:53;101115.74;;;14.59;36.82
55755;BME280;41674;52.290;-1.474;2023-04-26T12:50:18;101120.32;;;14.56;38.66
55755;BME280;41674;52.290;-1.474;2023-04-26T12:52:47;101114.71;;;14.47;37.25
55755;BME280;41674;52.290;-1.474;2023-04-26T12:55:17;101115.26;;;13.85;39.42
55755;BME280;41674;52.290;-1.474;2023-04-26T12:57:46;101121.59;;;14.32;39.74
55755;BME280;41674;52.290;-1.474;2023-04-26T13:00:16;101125.24;;;14.16;38.79
55755;BME280;41674;52.290;-1.474;2023-04-26T13:02:45;101125.76;;;14.11;40.06
55755;BME280;41674;52.290;-1.474;2023-04-26T13:05:15;101124.43;;;15.11;37.91